Aérodrome :
LOGIN :

S'inscrire | Disclaimer

   EN    FR    IT 

 










Légende :    VFR   VFR Marginal   IFR   IFR Intensif   IFR Très Intensif
Visi : 
Plafond : 
>= 8 km
>= 3000ft
5 à 8 km
1000 à 3000 ft
1500m à 5 km
500 à 1000 ft
800 à 1500m
200 à 500 ft
< 800m
< 200 ft
Symboles :   Orages  Brouillard  Fortes neiges  Fortes précipitations  Vent > 20 kt
SIGMETs :   Divers  Orages  Givrage  Turbulence  Onde Orograph.  Cendres Volcan.







- Altitude de l'aérodrome : 289 ft
- Code IATA : ZAD


LDZD - Zadar

DERNIER METAR :
  • 252000Z 12006KT 080V150 CAVOK 13/09 Q1015 NOSIG

METARs EXPIRÉS :
  • 251930Z 13010KT 100V160 CAVOK 14/10 Q1015 NOSIG
  • 251900Z 14011KT 9999 FEW040 14/10 Q1015 NOSIG
  • 251830Z 15012KT 9999 FEW040 15/10 Q1014 NOSIG
  • 251800Z 15016KT 9999 FEW040 15/10 Q1014 NOSIG
  • 251730Z 15017KT 9999 FEW040 16/10 Q1014 NOSIG

TAF TAF LDZD
Valide du 25 à 18h jusqu'au 26 à 18h UTC


251725Z 2518/2618 14016KT CAVOK TX20/2612Z TN11/2604Z
TEMPO 2608/2616 14023G35KT
Pas de NOTAMs connus pour ce terrain.



MET'MAP, la Météo Aéronautique d'un coup d'oeil ! - Copyright ORBIFLY Décembre 2007 - Disclaimer

ORBIFLY MET'MAP TEAM :

Programmation & Développement : Alexandra Zaïnal
Conception & Développement : Baudouin d'Aumeries
Co-Programmation & Développement : Marc-Olivier Méhu
Soutien technique & logistique : Manuel Goepfert

Contact : metmap@orbifly.com




SOURCES & CREDITS :

   NOAA